Time;durP1;ratioP1;P1;durP2;ratioP2;P2;SDS_P1;SDS_P2;PMS_P1;PMS_P2;Temp;Humidity;BMP_temperature;BMP_pressure;BME280_temperature;BME280_humidity;BME280_pressure;Samples;Min_cycle;Max_cycle;Signal;HPM_P1;HPM_P2
2022/05/27 00:00:06;;;;;;;6.25;3.70;;;;;;;11.20;84.71;97868.22;5034756;28;20404;-79
2022/05/27 00:02:34;;;;;;;6.20;3.70;;;;;;;11.13;84.97;97840.56;5016345;28;20053;-79
2022/05/27 00:05:02;;;;;;;5.60;4.28;;;;;;;11.14;84.76;97856.19;5033084;28;20135;-78
2022/05/27 00:07:32;;;;;;;7.40;4.50;;;;;;;11.09;84.47;97852.84;5034227;28;20050;-79
2022/05/27 00:09:59;;;;;;;7.68;5.35;;;;;;;11.10;84.80;97854.59;5016270;28;20515;-78
2022/05/27 00:12:27;;;;;;;10.45;5.90;;;;;;;11.21;84.78;97862.09;5034074;28;20049;-79
2022/05/27 00:14:57;;;;;;;10.82;6.13;;;;;;;11.19;84.93;97867.34;5034028;28;20061;-80
2022/05/27 00:17:24;;;;;;;16.52;6.97;;;;;;;11.12;84.77;97857.13;5033448;28;20427;-79
2022/05/27 00:19:51;;;;;;;11.82;6.88;;;;;;;11.18;84.62;97875.22;5016290;28;20057;-78
2022/05/27 00:22:18;;;;;;;14.75;7.80;;;;;;;11.16;84.84;97859.59;5033622;28;20080;-78
2022/05/27 00:24:45;;;;;;;12.82;7.97;;;;;;;11.14;84.90;97865.78;5033661;28;20064;-80
2022/05/27 00:27:12;;;;;;;17.48;8.77;;;;;;;11.19;85.50;97869.13;5027101;28;20116;-78
2022/05/27 00:29:42;;;;;;;20.92;10.05;;;;;;;11.10;84.68;97849.34;5013821;28;20145;-78
2022/05/27 00:32:31;;;;;;;18.05;8.93;;;;;;;10.98;85.06;97836.66;5000385;28;20057;-80
2022/05/27 00:35:00;;;;;;;18.48;8.57;;;;;;;11.16;85.21;97870.03;4997594;28;20144;-81
2022/05/27 00:37:28;;;;;;;17.17;8.43;;;;;;;11.12;84.77;97857.13;4997597;28;20054;-76
2022/05/27 00:39:56;;;;;;;16.58;7.35;;;;;;;11.15;85.16;97863.13;5014754;28;20149;-79
2022/05/27 00:42:24;;;;;;;19.98;7.32;;;;;;;11.16;84.98;97866.59;5014614;28;20046;-78
2022/05/27 00:44:53;;;;;;;15.77;7.30;;;;;;;11.10;84.98;97870.25;5014587;28;20054;-81
2022/05/27 00:47:24;;;;;;;14.05;6.97;;;;;;;11.11;85.64;97866.72;5014761;28;20056;-80
2022/05/27 00:49:57;;;;;;;14.85;6.18;;;;;;;11.16;84.82;97880.50;5014704;28;20084;-81
2022/05/27 00:52:30;;;;;;;12.88;5.70;;;;;;;11.07;84.95;97876.41;5014735;28;20054;-79
2022/05/27 00:55:02;;;;;;;11.88;5.78;;;;;;;10.98;85.25;97861.03;5014711;28;20060;-80
2022/05/27 00:57:38;;;;;;;13.25;6.13;;;;;;;11.02;84.92;97874.84;4997308;28;20064;-81
2022/05/27 01:00:16;;;;;;;11.60;5.75;;;;;;;11.00;85.48;97887.09;5014972;28;20041;-77
2022/05/27 01:02:44;;;;;;;15.38;6.13;;;;;;;10.93;85.27;97864.69;5018629;28;20811;-77
2022/05/27 01:05:17;;;;;;;18.00;6.63;;;;;;;10.94;85.76;97884.69;5013478;28;20057;-78
2022/05/27 01:07:45;;;;;;;16.23;6.30;;;;;;;10.82;85.77;97857.19;5013624;28;20519;-79
2022/05/27 01:10:15;;;;;;;17.35;6.18;;;;;;;10.79;85.68;97860.72;5013401;28;20519;-79
2022/05/27 01:13:00;;;;;;;9.90;5.03;;;;;;;10.93;85.73;97883.81;5013280;28;20140;-80
2022/05/27 01:16:09;;;;;;;11.32;5.25;;;;;;;10.86;85.76;97880.53;5013258;28;20107;-80
2022/05/27 01:21:45;;;;;;;15.52;6.22;;;;;;;10.86;86.04;97897.94;5020612;28;20148;-77
2022/05/27 01:24:42;;;;;;;8.70;5.28;;;;;;;10.84;85.80;97892.78;4997375;28;20053;-79
2022/05/27 01:27:50;;;;;;;13.10;6.05;;;;;;;10.72;85.97;97898.34;5016158;28;20053;-79
2022/05/27 01:30:21;;;;;;;14.80;6.47;;;;;;;10.69;86.78;97892.34;4933006;29;20434;-79
2022/05/27 01:33:27;;;;;;;13.15;6.13;;;;;;;10.73;86.43;97892.22;5004255;28;20108;-80
2022/05/27 01:36:15;;;;;;;8.50;5.40;;;;;;;10.74;87.09;97895.72;5013827;28;20504;-81
2022/05/27 01:39:12;;;;;;;15.13;6.57;;;;;;;10.71;87.06;97895.78;5013756;28;20054;-79
2022/05/27 01:41:46;;;;;;;9.10;6.22;;;;;;;10.66;86.34;97898.53;5011279;28;20060;-81
2022/05/27 01:44:31;;;;;;;9.93;6.32;;;;;;;10.66;86.67;97903.75;5013653;28;20104;-81
2022/05/27 01:47:04;;;;;;;9.75;5.88;;;;;;;10.66;87.13;97912.44;5013412;28;20080;-81
2022/05/27 01:49:48;;;;;;;16.23;7.00;;;;;;;10.66;86.65;97906.34;4996494;28;20053;-80
2022/05/27 01:52:35;;;;;;;13.98;6.97;;;;;;;10.68;87.06;97898.50;5013855;28;20104;-80
2022/05/27 01:55:24;;;;;;;15.48;7.03;;;;;;;10.65;86.85;97929.00;5013927;28;20092;-79
2022/05/27 01:58:13;;;;;;;12.37;6.57;;;;;;;10.46;86.43;97896.47;5013060;28;20419;-78
2022/05/27 02:00:43;;;;;;;12.07;7.20;;;;;;;10.64;86.49;97932.50;5013306;28;20292;-79
2022/05/27 02:03:18;;;;;;;12.65;6.90;;;;;;;10.56;86.93;97915.34;5013691;28;20050;-81
2022/05/27 02:05:58;;;;;;;10.73;6.00;;;;;;;10.56;86.50;97910.13;4996113;28;20053;-78
2022/05/27 02:08:41;;;;;;;9.75;6.63;;;;;;;10.61;86.36;97929.13;5019938;28;20117;-79
2022/05/27 02:11:22;;;;;;;11.48;7.28;;;;;;;10.58;86.75;97931.81;5021966;28;20050;-79
2022/05/27 02:14:10;;;;;;;14.93;7.63;;;;;;;10.56;86.78;97924.06;5021472;28;20054;-81
2022/05/27 02:16:46;;;;;;;9.65;6.70;;;;;;;10.60;86.31;97923.06;4976764;28;20109;-80
2022/05/27 02:19:24;;;;;;;12.85;7.68;;;;;;;10.62;86.40;97923.00;4993620;28;20148;-78
2022/05/27 02:21:57;;;;;;;13.45;8.10;;;;;;;10.49;86.83;97905.97;4993370;28;20074;-80
2022/05/27 02:24:39;;;;;;;14.23;8.93;;;;;;;10.60;86.61;97917.84;4993454;28;20566;-79
2022/05/27 02:27:18;;;;;;;17.33;10.43;;;;;;;10.59;86.47;97920.50;4993110;28;20112;-81
2022/05/27 02:29:51;;;;;;;16.73;9.48;;;;;;;10.65;86.52;97933.38;4993515;28;20064;-81
2022/05/27 02:32:24;;;;;;;13.88;8.80;;;;;;;10.67;86.94;97934.19;4994299;28;20141;-82
2022/05/27 02:35:08;;;;;;;15.60;9.50;;;;;;;10.68;86.68;97932.44;4994512;28;20527;-80
2022/05/27 02:37:48;;;;;;;13.48;8.65;;;;;;;10.71;86.40;97934.94;4993881;28;20065;-79
2022/05/27 02:40:28;;;;;;;13.75;7.65;;;;;;;10.64;86.19;97913.38;4994231;28;20058;-77
2022/05/27 02:43:26;;;;;;;11.48;6.80;;;;;;;10.73;85.96;97936.59;4995191;28;20427;-79
2022/05/27 02:46:14;;;;;;;10.70;6.47;;;;;;;10.78;86.18;97926.91;5013254;28;20111;-81
2022/05/27 02:48:52;;;;;;;9.38;5.80;;;;;;;10.78;85.89;97924.31;5013554;28;20057;-80
2022/05/27 02:51:35;;;;;;;8.27;4.75;;;;;;;10.79;86.03;97928.59;5013769;28;20534;-79
2022/05/27 02:54:15;;;;;;;4.65;3.92;;;;;;;10.75;85.26;97932.19;5013102;28;20089;-78
2022/05/27 02:57:08;;;;;;;6.38;4.72;;;;;;;10.68;85.58;97925.44;5007800;28;20058;-78
2022/05/27 02:59:37;;;;;;;9.15;4.72;;;;;;;10.77;85.43;97938.25;4993313;28;20058;-82
2022/05/27 03:02:08;;;;;;;5.80;4.82;;;;;;;10.78;85.73;97949.56;4992944;28;20057;-81
2022/05/27 03:04:41;;;;;;;5.53;4.38;;;;;;;10.83;85.85;97947.66;4993551;28;20054;-80
2022/05/27 03:07:23;;;;;;;4.05;3.28;;;;;;;10.85;85.28;97946.72;4993450;28;20065;-80
2022/05/27 03:09:59;;;;;;;5.10;3.45;;;;;;;10.85;85.21;97959.78;4975863;28;20471;-80
2022/05/27 03:12:36;;;;;;;5.63;3.58;;;;;;;10.84;84.57;97955.47;4976178;28;20460;-82
2022/05/27 03:15:32;;;;;;;5.65;3.30;;;;;;;10.76;84.91;97952.22;5002278;28;20062;-80
2022/05/27 03:18:19;;;;;;;5.10;3.47;;;;;;;10.82;84.86;97953.81;5012787;28;20056;-80
2022/05/27 03:21:00;;;;;;;5.32;3.00;;;;;;;10.93;85.13;97956.13;5013523;28;20060;-80
2022/05/27 03:23:29;;;;;;;4.85;3.25;;;;;;;11.02;84.63;97958.47;5012723;28;20046;-80
2022/05/27 03:26:17;;;;;;;5.13;3.30;;;;;;;11.01;84.22;97972.41;5013407;28;20062;-80
2022/05/27 03:28:58;;;;;;;6.95;3.80;;;;;;;11.07;84.11;97967.00;5013888;28;20054;-79
2022/05/27 03:31:37;;;;;;;5.82;3.60;;;;;;;11.02;83.66;97927.09;5016776;28;20515;-79
2022/05/27 03:34:11;;;;;;;6.70;4.28;;;;;;;11.23;83.64;97942.16;5018656;28;20530;-81
2022/05/27 03:36:56;;;;;;;6.63;4.13;;;;;;;11.45;83.03;97965.03;5027424;28;20065;-80
2022/05/27 03:39:34;;;;;;;7.05;4.45;;;;;;;11.53;82.36;97957.81;5016539;28;20077;-80
2022/05/27 03:42:08;;;;;;;5.78;3.97;;;;;;;11.68;82.41;97965.19;5015667;28;20058;-81
2022/05/27 03:44:37;;;;;;;6.03;3.90;;;;;;;11.89;81.73;97970.66;5015620;28;20049;-82
2022/05/27 03:47:05;;;;;;;6.07;4.50;;;;;;;11.92;81.31;97965.34;4998046;28;20108;-80
2022/05/27 03:49:31;;;;;;;4.20;3.58;;;;;;;12.00;81.29;97970.31;5015271;28;20050;-80
2022/05/27 03:52:07;;;;;;;6.90;4.30;;;;;;;12.02;80.78;97972.00;5015173;28;20064;-80
2022/05/27 03:54:34;;;;;;;7.38;4.13;;;;;;;12.14;80.68;97972.50;5015564;28;20495;-80
2022/05/27 03:57:01;;;;;;;5.93;4.63;;;;;;;12.31;80.29;97977.16;5015261;28;20491;-81
2022/05/27 03:59:28;;;;;;;4.60;4.00;;;;;;;12.14;80.10;97947.16;5015729;28;20050;-80
2022/05/27 04:01:56;;;;;;;5.28;3.72;;;;;;;12.23;79.54;97961.72;5014914;28;20463;-81
2022/05/27 04:04:26;;;;;;;5.38;4.03;;;;;;;12.40;79.51;97976.84;4997608;28;20405;-80
2022/05/27 04:06:54;;;;;;;5.68;3.90;;;;;;;12.22;79.54;97971.31;5014933;28;20057;-78
2022/05/27 04:09:22;;;;;;;5.07;4.18;;;;;;;12.19;79.70;97981.03;5014325;28;20053;-80
2022/05/27 04:11:51;;;;;;;4.85;3.78;;;;;;;11.86;80.07;97937.56;5000030;28;20439;-79
2022/05/27 04:14:23;;;;;;;6.65;4.90;;;;;;;12.08;80.20;97984.00;5011131;28;20065;-78
2022/05/27 04:16:50;;;;;;;4.93;3.67;;;;;;;12.14;79.97;97975.13;5021660;28;20512;-81
2022/05/27 04:19:20;;;;;;;4.40;4.00;;;;;;;12.24;80.01;97976.53;5030837;28;20057;-80
2022/05/27 04:21:47;;;;;;;6.10;4.53;;;;;;;12.26;79.44;97962.47;5024500;28;20057;-79
2022/05/27 04:24:14;;;;;;;6.57;4.70;;;;;;;12.20;78.94;97933.88;5016498;28;20109;-79
2022/05/27 04:26:53;;;;;;;6.47;4.07;;;;;;;12.49;78.83;97979.16;5000106;28;20056;-77
2022/05/27 04:29:21;;;;;;;6.63;4.82;;;;;;;12.47;78.95;97975.72;5024126;28;20515;-80
2022/05/27 04:31:48;;;;;;;4.93;4.00;;;;;;;12.65;78.57;97979.50;5025065;28;20050;-78
2022/05/27 04:34:20;;;;;;;6.93;4.40;;;;;;;12.73;78.14;97981.81;5023974;28;20054;-79
2022/05/27 04:36:46;;;;;;;4.28;3.88;;;;;;;12.62;77.93;97969.94;5022989;28;20077;-77
2022/05/27 04:39:18;;;;;;;4.90;3.90;;;;;;;12.61;77.93;97990.97;5007473;28;20483;-79
2022/05/27 04:41:46;;;;;;;5.63;4.32;;;;;;;12.49;77.74;97974.75;5024534;28;20125;-81
2022/05/27 04:44:15;;;;;;;4.70;4.03;;;;;;;12.48;77.23;97980.06;5023164;28;20063;-79
2022/05/27 04:46:44;;;;;;;6.75;5.00;;;;;;;12.50;77.85;97981.72;5023524;28;20598;-79
2022/05/27 04:49:50;;;;;;;5.50;4.68;;;;;;;12.59;77.95;97984.94;5024406;28;20045;-79
2022/05/27 04:52:00;;;;;;;6.93;4.85;;;;;;;12.46;77.69;97959.16;5004952;28;20063;-81
2022/05/27 04:54:27;;;;;;;7.40;4.80;;;;;;;12.58;77.10;97988.44;4991033;28;20050;-80
2022/05/27 04:56:55;;;;;;;6.57;3.92;;;;;;;12.56;77.57;97988.53;5007300;28;20428;-78
2022/05/27 04:59:24;;;;;;;6.73;4.60;;;;;;;12.65;77.70;97992.59;5024213;28;20058;-78
2022/05/27 05:01:53;;;;;;;4.35;3.95;;;;;;;12.69;76.76;97991.53;5016746;28;20053;-78
2022/05/27 05:04:22;;;;;;;6.10;4.70;;;;;;;12.72;76.63;97986.22;5014015;28;20061;-81
2022/05/27 05:06:50;;;;;;;5.82;4.22;;;;;;;12.87;76.38;98000.53;5013573;28;20053;-80
2022/05/27 05:09:18;;;;;;;4.43;3.70;;;;;;;12.43;76.00;97921.75;5013463;28;20065;-80
2022/05/27 05:11:47;;;;;;;5.40;4.18;;;;;;;12.91;75.60;98003.00;5013154;28;20050;-81
2022/05/27 05:14:15;;;;;;;6.60;3.83;;;;;;;13.00;75.59;98004.44;5013577;28;20492;-80
2022/05/27 05:16:44;;;;;;;4.28;3.83;;;;;;;13.04;75.05;98010.44;4995464;28;20108;-80
2022/05/27 05:19:11;;;;;;;5.28;3.75;;;;;;;13.02;75.42;97996.53;5013702;28;20054;-80
2022/05/27 05:21:39;;;;;;;5.07;4.22;;;;;;;13.17;75.10;98000.34;5012782;28;20058;-80
2022/05/27 05:24:08;;;;;;;6.10;4.80;;;;;;;13.26;75.02;98002.63;5014221;28;20058;-81
2022/05/27 05:26:35;;;;;;;5.20;4.70;;;;;;;13.32;74.48;97999.81;4998379;28;20347;-78
2022/05/27 05:29:03;;;;;;;5.18;4.68;;;;;;;13.36;74.81;98001.41;5017546;28;20136;-83
2022/05/27 05:31:30;;;;;;;5.78;4.68;;;;;;;13.45;74.98;98003.69;5024333;28;20108;-81
2022/05/27 05:33:59;;;;;;;6.38;4.78;;;;;;;13.41;74.94;97999.47;5018843;28;20471;-80
2022/05/27 05:36:28;;;;;;;7.18;4.57;;;;;;;13.26;74.83;97986.88;5022310;28;20050;-83
2022/05/27 05:38:56;;;;;;;4.68;4.00;;;;;;;13.25;74.61;98000.91;5022633;28;20139;-82
2022/05/27 05:41:26;;;;;;;6.63;4.07;;;;;;;13.30;74.43;97997.25;5024581;28;20095;-80
2022/05/27 05:43:55;;;;;;;6.40;4.90;;;;;;;13.39;74.17;97992.56;5031200;28;20052;-78
2022/05/27 05:46:24;;;;;;;7.95;5.63;;;;;;;13.43;73.89;97994.16;5030624;28;20060;-79
2022/05/27 05:48:51;;;;;;;6.28;5.25;;;;;;;13.50;73.16;97980.75;5037664;28;20569;-78
2022/05/27 05:51:19;;;;;;;5.47;4.50;;;;;;;13.62;72.27;98003.03;5018728;28;20054;-80
2022/05/27 05:53:46;;;;;;;7.45;4.50;;;;;;;13.63;72.74;97990.78;5020573;28;20057;-79
2022/05/27 05:56:13;;;;;;;4.65;3.85;;;;;;;13.70;72.57;98007.97;5005750;28;20511;-80
2022/05/27 05:58:40;;;;;;;5.55;4.32;;;;;;;13.60;72.62;98002.25;5003129;28;20514;-80
2022/05/27 06:01:07;;;;;;;4.43;3.58;;;;;;;13.50;72.39;97985.97;5022663;28;20103;-77
2022/05/27 06:03:35;;;;;;;6.35;3.78;;;;;;;13.64;72.57;98006.47;5020843;28;20041;-80
2022/05/27 06:06:02;;;;;;;3.80;3.40;;;;;;;13.65;71.64;97995.03;5020125;28;20046;-79
2022/05/27 06:08:30;;;;;;;4.47;3.80;;;;;;;13.86;71.38;98019.59;5023144;28;20046;-79
2022/05/27 06:10:57;;;;;;;4.70;3.42;;;;;;;13.84;71.03;98010.91;5020807;28;20419;-80
2022/05/27 06:13:26;;;;;;;5.60;3.53;;;;;;;13.81;70.69;97999.69;5003273;28;20474;-79
2022/05/27 06:15:55;;;;;;;4.53;3.53;;;;;;;13.73;71.22;98021.84;5023028;28;20058;-79
2022/05/27 06:18:22;;;;;;;3.95;3.50;;;;;;;13.48;70.96;98023.69;5021290;28;20524;-78
2022/05/27 06:20:50;;;;;;;6.10;4.07;;;;;;;13.39;71.22;98019.63;5021222;28;20160;-80
2022/05/27 06:23:17;;;;;;;4.93;4.15;;;;;;;13.31;71.07;98009.44;4990662;28;20523;-80
2022/05/27 06:25:44;;;;;;;5.38;3.85;;;;;;;13.50;71.37;98008.75;5021582;28;20046;-78
2022/05/27 06:36:35;;;;;;;4.03;3.63;;;;;;;14.39;67.59;98018.38;5022565;28;20081;-78
2022/05/27 06:39:05;;;;;;;4.55;3.70;;;;;;;14.43;67.59;98017.31;5023387;28;20053;-79
2022/05/27 06:41:34;;;;;;;4.45;3.08;;;;;;;14.34;67.29;98022.94;5005549;28;20049;-79
2022/05/27 06:44:02;;;;;;;4.37;3.70;;;;;;;14.35;67.94;98032.53;5022330;28;20049;-79
2022/05/27 06:46:30;;;;;;;5.25;3.70;;;;;;;14.49;67.61;98030.16;5020937;28;20104;-79
2022/05/27 06:48:59;;;;;;;5.70;3.55;;;;;;;14.46;68.08;98025.06;5021437;28;20100;-78
2022/05/27 06:51:26;;;;;;;3.92;3.53;;;;;;;14.40;67.94;98032.34;5015887;28;20080;-79
2022/05/27 06:53:53;;;;;;;4.70;3.53;;;;;;;14.10;68.70;98033.50;5013171;28;20100;-80
2022/05/27 06:56:21;;;;;;;7.38;4.50;;;;;;;13.98;69.16;98034.03;5012895;28;20085;-80
2022/05/27 06:58:49;;;;;;;8.15;4.45;;;;;;;13.85;70.21;98027.50;5012489;28;20062;-80
2022/05/27 07:01:15;;;;;;;6.97;4.35;;;;;;;13.90;69.59;98041.34;5012598;28;20060;-79
2022/05/27 07:03:45;;;;;;;7.18;4.55;;;;;;;13.99;69.56;98027.84;5012254;28;20100;-80
2022/05/27 07:06:14;;;;;;;5.50;4.38;;;;;;;14.31;68.82;98030.94;4995226;28;20058;-80
2022/05/27 07:08:41;;;;;;;5.63;4.13;;;;;;;14.78;68.05;98041.28;5012567;28;20124;-79
2022/05/27 07:11:11;;;;;;;6.40;4.50;;;;;;;15.34;66.97;98037.94;5015225;28;20053;-81
2022/05/27 07:13:38;;;;;;;4.97;4.20;;;;;;;15.92;64.46;98025.69;5014595;28;20056;-80
2022/05/27 07:16:06;;;;;;;6.50;4.53;;;;;;;16.11;63.73;98026.50;4996183;28;20080;-79
2022/05/27 07:18:33;;;;;;;4.47;4.07;;;;;;;16.09;63.23;98015.19;5016047;28;20058;-81
2022/05/27 07:21:02;;;;;;;4.85;4.38;;;;;;;16.13;63.20;98029.94;5015828;28;20057;-79
2022/05/27 07:23:30;;;;;;;6.53;4.63;;;;;;;16.57;62.38;98040.03;5015955;28;20192;-79
2022/05/27 07:26:00;;;;;;;6.57;5.50;;;;;;;17.02;60.37;98040.47;5017291;28;20053;-78
2022/05/27 07:28:28;;;;;;;5.80;4.25;;;;;;;16.88;59.16;98043.78;5017251;28;20057;-81
2022/05/27 07:30:56;;;;;;;6.43;4.32;;;;;;;16.44;60.46;98030.19;5015546;28;20054;-80
2022/05/27 07:33:26;;;;;;;7.72;5.50;;;;;;;16.60;59.79;98052.22;5015783;28;20054;-80
2022/05/27 07:35:56;;;;;;;6.90;4.05;;;;;;;16.70;59.07;98042.91;4997966;28;20125;-81
2022/05/27 07:38:23;;;;;;;5.63;4.00;;;;;;;16.64;58.88;98055.56;5015748;28;20085;-80
2022/05/27 07:40:52;;;;;;;7.25;3.75;;;;;;;16.14;59.36;98041.31;5016350;28;20096;-79
2022/05/27 07:43:20;;;;;;;4.15;3.75;;;;;;;15.41;60.86;98040.28;4998600;28;20061;-84
2022/05/27 07:45:49;;;;;;;4.05;3.72;;;;;;;15.24;62.07;98065.56;4999012;28;20049;-82
2022/05/27 07:48:17;;;;;;;8.00;4.75;;;;;;;15.44;61.11;98035.72;4999077;28;20065;-83
2022/05/27 07:50:45;;;;;;;5.13;4.45;;;;;;;16.23;60.02;98069.84;5016023;28;20168;-80
2022/05/27 07:53:12;;;;;;;4.95;4.45;;;;;;;16.47;59.41;98066.94;5016296;28;20088;-80
2022/05/27 07:55:40;;;;;;;7.72;4.10;;;;;;;16.25;59.09;98067.13;4998721;28;20050;-80
2022/05/27 07:58:08;;;;;;;5.60;4.35;;;;;;;15.64;59.90;98061.16;5015272;28;20447;-79
2022/05/27 08:00:37;;;;;;;11.00;5.65;;;;;;;15.53;60.34;98069.53;5019589;28;20050;-79
2022/05/27 08:03:11;;;;;;;7.53;5.13;;;;;;;15.41;60.71;98069.25;5019270;28;20488;-79
2022/05/27 08:05:40;;;;;;;11.27;7.22;;;;;;;14.96;61.82;98065.91;5015788;28;20054;-81
2022/05/27 08:08:08;;;;;;;13.68;8.63;;;;;;;14.80;62.40;98059.59;5015568;28;20084;-79
2022/05/27 08:10:37;;;;;;;16.65;10.57;;;;;;;14.80;62.41;98070.09;5015741;28;20132;-79
2022/05/27 08:13:06;;;;;;;19.13;11.38;;;;;;;14.95;61.80;98067.69;5015021;28;20050;-79
2022/05/27 08:15:35;;;;;;;18.48;11.07;;;;;;;15.51;60.31;98087.19;5015077;28;20060;-79
2022/05/27 08:18:03;;;;;;;17.33;10.63;;;;;;;15.84;59.18;98065.53;5028048;28;20049;-80
2022/05/27 08:20:33;;;;;;;91.13;18.73;;;;;;;16.31;58.28;98058.94;5000823;28;20107;-78
2022/05/27 08:23:01;;;;;;;65.45;16.73;;;;;;;16.24;57.62;98049.59;4999046;28;20056;-79
2022/05/27 08:25:29;;;;;;;155.43;23.08;;;;;;;16.58;57.33;98076.03;5021151;28;20092;-79
2022/05/27 08:27:57;;;;;;;27.70;11.80;;;;;;;16.67;56.40;98082.63;5028187;28;20057;-79
2022/05/27 08:30:28;;;;;;;171.95;27.50;;;;;;;16.96;55.65;98080.34;5030301;28;20056;-83
2022/05/27 08:32:57;;;;;;;292.65;38.53;;;;;;;17.16;54.85;98076.66;5012963;28;20053;-82
2022/05/27 08:38:21;;;;;;;17.92;7.88;;;;;;;17.29;52.48;98090.91;5003907;28;20053;-79
2022/05/27 08:41:19;;;;;;;23.00;7.45;;;;;;;17.19;52.25;98085.28;5021668;28;20824;-81
2022/05/27 08:44:17;;;;;;;6.20;4.70;;;;;;;17.21;52.14;98087.84;4987101;28;20104;-82
2022/05/27 08:46:50;;;;;;;9.93;6.72;;;;;;;17.04;52.51;98094.00;5013730;28;20050;-79
2022/05/27 08:49:29;;;;;;;13.63;4.65;;;;;;;17.10;52.50;98096.31;4995589;28;20428;-81
2022/05/27 08:52:06;;;;;;;26.58;12.43;;;;;;;17.14;52.18;98076.78;4996937;28;20061;-79
2022/05/27 08:54:59;;;;;;;26.63;14.98;;;;;;;17.61;51.30;98085.75;5013847;28;20064;-79
2022/05/27 09:00:24;;;;;;;7.97;4.70;;;;;;;17.50;50.31;98075.75;5033405;28;20053;-79
2022/05/27 09:02:55;;;;;;;35.70;6.70;;;;;;;17.64;49.43;98090.88;5029488;28;20652;-80
2022/05/27 09:05:32;;;;;;;152.73;16.85;;;;;;;17.69;49.58;98074.78;5024778;28;20045;-80
2022/05/27 09:08:01;;;;;;;14.55;3.63;;;;;;;17.84;48.84;98094.25;5022557;28;20109;-82
2022/05/27 09:10:35;;;;;;;20.67;4.82;;;;;;;17.20;50.17;98094.03;5026855;28;20050;-81
2022/05/27 09:13:11;;;;;;;9.07;3.22;;;;;;;16.53;52.02;98072.75;5003365;28;20054;-80
2022/05/27 09:15:55;;;;;;;113.93;14.07;;;;;;;16.22;52.73;98091.84;5021911;28;20069;-80
2022/05/27 09:18:26;;;;;;;281.55;32.25;;;;;;;15.92;54.03;98107.31;5025633;28;20137;-80
2022/05/27 09:21:02;;;;;;;144.65;16.95;;;;;;;15.74;55.19;98095.81;5007921;28;20049;-81
2022/05/27 09:23:36;;;;;;;232.73;28.70;;;;;;;15.68;55.60;98111.84;5033375;28;20057;-79
2022/05/27 09:26:11;;;;;;;143.32;19.60;;;;;;;15.63;55.62;98117.34;5030940;28;20056;-79
2022/05/27 09:29:27;;;;;;;21.05;5.90;;;;;;;15.56;55.60;98102.75;5004583;28;20053;-81
2022/05/27 09:32:03;;;;;;;64.85;10.63;;;;;;;15.57;56.51;98091.28;5005789;28;20128;-81
2022/05/27 09:34:37;;;;;;;12.13;5.55;;;;;;;15.85;56.83;98108.50;5017080;28;20060;-81
2022/05/27 09:37:08;;;;;;;6.68;3.55;;;;;;;16.28;56.50;98106.47;5022267;28;20137;-79
2022/05/27 09:39:35;;;;;;;6.55;3.50;;;;;;;16.84;55.12;98126.63;5025722;28;20049;-79
2022/05/27 09:42:24;;;;;;;7.88;4.32;;;;;;;17.40;54.34;98128.19;5022897;28;20095;-79
2022/05/27 09:44:55;;;;;;;5.07;3.15;;;;;;;17.85;52.21;98117.91;5021678;28;20054;-80
2022/05/27 09:47:29;;;;;;;5.85;3.20;;;;;;;18.10;51.15;98091.03;5020577;28;20076;-80
2022/05/27 09:50:05;;;;;;;5.45;3.20;;;;;;;18.50;50.84;98115.22;5023635;28;20133;-79
2022/05/27 09:52:40;;;;;;;5.45;3.38;;;;;;;18.36;50.31;98100.13;5021606;28;20073;-80
2022/05/27 09:55:15;;;;;;;4.38;3.00;;;;;;;18.40;50.62;98116.69;5020237;28;20081;-79
2022/05/27 09:57:59;;;;;;;6.85;4.05;;;;;;;18.58;50.58;98113.00;5022743;28;20496;-80
2022/05/27 10:00:49;;;;;;;6.45;4.03;;;;;;;18.19;50.28;98119.56;5013680;28;20511;-79
2022/05/27 10:03:24;;;;;;;7.20;4.93;;;;;;;18.03;50.22;98118.72;5024678;28;20045;-80
2022/05/27 10:06:10;;;;;;;12.13;4.85;;;;;;;18.17;49.45;98117.97;5017170;28;20046;-79
2022/05/27 10:08:50;;;;;;;4.45;3.10;;;;;;;18.19;49.54;98124.84;5021859;28;20049;-79
2022/05/27 10:11:28;;;;;;;4.82;4.32;;;;;;;17.31;52.91;98109.31;5017437;28;20139;-81
2022/05/27 10:14:20;;;;;;;5.90;3.67;;;;;;;16.75;55.06;98145.50;5008588;28;20096;-80
2022/05/27 10:17:24;;;;;;;3.72;3.38;;;;;;;16.48;56.17;98134.53;5015156;28;20050;-79
2022/05/27 10:19:52;;;;;;;3.50;3.17;;;;;;;16.81;56.41;98139.97;5002383;28;20140;-81
2022/05/27 10:22:30;;;;;;;5.82;3.90;;;;;;;17.35;55.81;98142.53;5015573;28;20053;-81
2022/05/27 10:25:12;;;;;;;4.15;3.67;;;;;;;18.15;53.44;98136.53;5019863;28;20045;-79
2022/05/27 10:27:52;;;;;;;5.05;3.50;;;;;;;18.75;52.80;98130.53;5021940;28;20565;-80
2022/05/27 10:30:30;;;;;;;6.55;3.70;;;;;;;18.94;51.15;98125.06;5021996;28;20077;-79
2022/05/27 10:33:16;;;;;;;4.47;3.60;;;;;;;19.16;50.71;98126.44;5023260;28;20085;-79
2022/05/27 10:35:51;;;;;;;3.53;3.22;;;;;;;19.28;50.19;98133.69;5004571;28;20061;-81
2022/05/27 10:38:19;;;;;;;5.88;3.80;;;;;;;19.34;48.62;98128.03;5028631;28;20161;-80
2022/05/27 10:41:25;;;;;;;2.97;2.75;;;;;;;19.18;48.36;98136.00;5012652;28;20049;-79
2022/05/27 10:44:22;;;;;;;5.18;4.00;;;;;;;18.95;48.89;98134.72;5023426;28;20061;-81
2022/05/27 10:46:53;;;;;;;5.40;4.90;;;;;;;19.07;48.43;98121.72;5004778;28;20069;-80
2022/05/27 10:49:40;;;;;;;4.38;3.50;;;;;;;19.24;47.43;98126.84;5010254;28;20045;-79
2022/05/27 10:52:18;;;;;;;6.13;4.28;;;;;;;19.40;47.19;98118.84;5027075;28;20049;-78
2022/05/27 10:54:56;;;;;;;8.75;5.50;;;;;;;19.43;46.32;98110.72;5012318;28;20139;-80
2022/05/27 11:03:55;;;;;;;4.55;2.80;;;;;;;17.93;49.14;98162.44;5026781;28;20057;-80
2022/05/27 11:06:39;;;;;;;5.15;2.90;;;;;;;16.94;53.56;98177.97;5022753;28;20080;-80
2022/05/27 11:09:09;;;;;;;3.70;2.80;;;;;;;16.14;58.20;98201.97;5023655;28;20053;-79
2022/05/27 11:11:55;;;;;;;5.00;3.10;;;;;;;15.31;60.70;98209.03;5023826;28;20092;-80
2022/05/27 11:17:41;;;;;;;1.67;1.58;;;;;;;14.14;63.63;98208.41;5023043;28;20054;-80
2022/05/27 11:20:41;;;;;;;2.70;2.25;;;;;;;13.87;64.31;98225.16;5006222;28;20459;-79
2022/05/27 11:23:22;;;;;;;2.40;1.67;;;;;;;13.77;66.19;98232.50;4998893;28;20147;-81
2022/05/27 11:25:59;;;;;;;6.28;3.25;;;;;;;13.97;65.74;98217.81;5015902;28;20046;-81
2022/05/27 11:28:38;;;;;;;8.75;2.60;;;;;;;14.21;65.45;98213.41;5016005;28;20054;-80
2022/05/27 11:31:17;;;;;;;9.07;2.50;;;;;;;14.26;65.46;98187.81;5015978;28;20459;-81
2022/05/27 11:33:55;;;;;;;8.45;3.50;;;;;;;14.59;65.05;98211.13;5015750;28;20495;-80
2022/05/27 11:36:43;;;;;;;15.48;4.90;;;;;;;14.94;64.16;98204.47;4999174;28;20050;-81
2022/05/27 11:39:49;;;;;;;4.47;3.45;;;;;;;15.39;63.82;98198.22;4998531;28;20057;-79
2022/05/27 11:42:43;;;;;;;3.15;2.80;;;;;;;15.89;63.27;98205.69;5018935;28;20073;-79
2022/05/27 11:45:21;;;;;;;5.20;3.10;;;;;;;16.35;62.99;98202.78;5023930;28;20046;-77
2022/05/27 11:48:28;;;;;;;5.15;3.50;;;;;;;16.60;62.33;98194.53;5016410;28;20084;-81
2022/05/27 11:51:24;;;;;;;3.40;2.80;;;;;;;16.32;62.52;98174.75;4936117;29;20075;-81
2022/05/27 11:54:18;;;;;;;4.53;2.47;;;;;;;16.41;62.10;98205.09;4936672;29;20537;-78
2022/05/27 11:56:55;;;;;;;2.88;2.58;;;;;;;16.32;61.87;98202.91;5006789;28;20064;-84
2022/05/27 11:59:33;;;;;;;2.28;2.13;;;;;;;16.20;61.54;98203.47;5018039;28;20060;-84
2022/05/27 12:02:09;;;;;;;3.22;2.05;;;;;;;16.13;61.84;98202.88;5015820;28;20045;-82
2022/05/27 12:04:54;;;;;;;1.67;1.58;;;;;;;16.10;60.34;98217.06;5015683;28;20049;-82
2022/05/27 12:07:41;;;;;;;3.45;2.10;;;;;;;16.08;60.85;98203.09;5024912;28;20515;-81
2022/05/27 12:10:34;;;;;;;4.30;1.73;;;;;;;16.09;60.09;98217.13;5025132;28;20065;-79
2022/05/27 12:13:29;;;;;;;2.25;2.00;;;;;;;16.11;59.61;98215.25;5024810;28;20142;-80
2022/05/27 12:16:06;;;;;;;2.90;1.98;;;;;;;16.29;59.10;98216.22;4992938;28;20062;-81
2022/05/27 12:18:42;;;;;;;4.55;3.38;;;;;;;16.41;59.01;98199.81;5006706;28;20047;-81
2022/05/27 12:21:16;;;;;;;4.28;2.75;;;;;;;16.72;58.09;98222.97;4987456;28;20056;-84
2022/05/27 12:23:50;;;;;;;4.63;2.40;;;;;;;16.75;57.03;98169.22;5006505;28;20064;-82
2022/05/27 12:26:22;;;;;;;2.50;1.70;;;;;;;17.11;56.50;98208.81;4988460;28;20524;-80
2022/05/27 12:28:49;;;;;;;1.58;1.48;;;;;;;17.24;56.76;98209.06;5002900;28;20462;-81
2022/05/27 12:31:17;;;;;;;2.53;1.65;;;;;;;17.19;56.62;98190.81;4997474;28;20042;-78